Onweer radar more information blitzortung!


Regen radar more information rain snow radar


Meteo Sauwerd

Weerstation Alkmaar Centrum

Weerstation Luyksgestel

Website Noardburgum

Weerstation Noordbergum


U vindt ons ook hier:

Het Weer Aktueel

UK Metoffice

European Weather Network

Weather Underground

AWEKAS

Citizen Weather Observer Program (CWOP)

HAMweather, WeatherForYou, PWS Weather



Het weer levert geen direct gevaar op.    Er zijn geen waarschuwingen afgegeven.

METAR rapporten vliegvelden

   
EHLW - Leeuwarden Rnlaf, Netherlands
Afstand tot: W 17 km
Gewijzigd: 10-12-2019 11:25
Bewolking  
Bewolking  
   Wind: ZZW 20.4 km/h
Wind: ZZW 20.4 km/h
Temperatuur: 6°C
Voelt als: 2°C
Dauwpunt: 4°C
Vochtigheid: 87%
Barometer: 1020 hPa
Bewolking: Bewolking
Zicht: meer dan 10 km
Bewolking: Bewolking 18000 ft
EHLW 101025Z AUTO 20011KT 170V230 9999 OVC180 06/04 Q1020 BLU
EHMA - Awg-1 Sea, Netherlands
Afstand tot: N 31 km
Gewijzigd: 10-12-2019 10:55
Licht bewolkt  
Licht bewolkt  
   Wind: ZZW 40.7 km/h
Wind: ZZW 40.7 km/h
Temperatuur: 6°C
Voelt als: 1°C
Dauwpunt: 3°C
Vochtigheid: 81%
Barometer: 1020 hPa
Bewolking: Licht bewolkt
Zicht: meer dan 10 km
Bewolking: Licht bewolkt 3000 ft
EHMA 100955Z AUTO 20022KT 180V240 9999 FEW030 06/03 Q1020
EHGG - Groningen/Eelde, Netherlands
Afstand tot: OZO 40 km
Gewijzigd: 10-12-2019 11:25
Gedeeltelijk bewolkt  
Gedeeltelijk bewolkt  
   Wind: ZZW 20.4 km/h
Wind: ZZW 20.4 km/h
Temperatuur: 5°C
Voelt als: 1°C
Dauwpunt: 2°C
Vochtigheid: 81%
Barometer: 1021 hPa
Bewolking: Gedeeltelijk bewolkt
Zicht: meer dan 10 km
Bewolking: Gedeeltelijk bewolkt
EHGG 101025Z AUTO 20011KT 9999 NSC 05/02 Q1021 NOSIG
EHVL - Vlieland Island, Netherlands
Afstand tot: W 72 km
Gewijzigd: 10-12-2019 11:25
Bewolking  
Bewolking  
   Wind: Zuiden 31.5 km/h
Wind: Zuiden 31.5 km/h
Temperatuur: 6°C
Voelt als: 1°C
Dauwpunt: 3°C
Vochtigheid: 81%
Barometer: 1019 hPa
Bewolking: Bewolking
Zicht: meer dan 10 km
Bewolking: Licht bewolkt 2000 ft,
Gedeeltelijk bewolkt 2900 ft,
Bewolking 17000 ft
EHVL 101025Z AUTO 19017KT 9999 FEW020 SCT029 OVC170 06/03 Q1019 BLU
EHMG - L9-Ff-1 Sea, Netherlands
Afstand tot: WNW 81 km
Gewijzigd: 10-12-2019 10:55
Grotendeels bewolkt  
Grotendeels bewolkt  
   Wind: ZZW 63 km/h
Wind: ZZW 63 km/h
Temperatuur: 8°C
Voelt als: 2°C
Dauwpunt: 2°C
Vochtigheid: 66%
Barometer: 1020 hPa
Bewolking: Grotendeels bewolkt
Zicht: meer dan 10 km
Bewolking: Gedeeltelijk bewolkt 2700 ft,
Grotendeels bewolkt 3100 ft
EHMG 100955Z AUTO 21034KT 9999 SCT027 BKN031 08/02 Q1020
EHKD - De Kooy (navy), Netherlands
Afstand tot: WZW 89 km
Gewijzigd: 10-12-2019 11:25
Bewolking  
Bewolking  
   Wind: ZZW 33.3 km/h
Wind: ZZW 33.3 km/h
Temperatuur: 7°C
Voelt als: 2°C
Dauwpunt: 2°C
Vochtigheid: 71%
Barometer: 1020 hPa
Bewolking: Bewolking
Zicht: meer dan 10 km
Bewolking: Bewolking 18000 ft
EHKD 101025Z AUTO 20018KT 9999 OVC180 07/02 Q1020 BLU 19019KT 9999 FEW020 BKN200

Script ontwikkeld door  Saratoga-weather.org Aangepast voor de template door  Weerstation Leuven

Apparatuur in gebruik:

Weerstation
Davis Vantage pro 2

Weerprogramma
Meteobridge

Weercomputer
TP-Link TL-WR703N

Webleverancier
Versio

Davis Vantage pro 2

Meteobridge

TP-Link TL-WR703N

Versio